Time;durP1;ratioP1;P1;durP2;ratioP2;P2;SDS_P1;SDS_P2;PMS_P1;PMS_P2;Temp;Humidity;BMP_temperature;BMP_pressure;BME280_temperature;BME280_humidity;BME280_pressure;Samples;Min_cycle;Max_cycle;Signal;HPM_P1;HPM_P2
2024/01/01 00:03:00;;;;;;;;;238.00;211.75;;;;;8.40;82.64;101313.47;146622;569;47010;-71
2024/01/01 00:06:04;;;;;;;;;227.75;198.75;;;;;8.44;82.88;101328.41;146623;614;46012;-69
2024/01/01 00:09:14;;;;;;;;;225.75;189.25;;;;;8.44;82.79;101334.50;146623;630;46020;-71
2024/01/01 00:12:19;;;;;;;;;188.00;164.75;;;;;4.54;82.00;100648.72;146619;581;46918;-71
2024/01/01 00:15:14;;;;;;;;;182.50;160.25;;;;;8.44;83.97;101333.56;146614;586;46021;-70
2024/01/01 00:18:15;;;;;;;;;177.50;160.75;;;;;8.42;83.67;101333.47;146620;588;46014;-71
2024/01/01 00:21:11;;;;;;;;;157.00;141.75;;;;;8.42;83.87;101325.72;146621;566;46020;-71
2024/01/01 00:24:04;;;;;;;;;139.50;126.25;;;;;8.43;83.59;101326.62;146622;633;46016;-70
2024/01/01 00:27:26;;;;;;;;;;;;;;;;;;;;;
2024/01/01 00:30:39;;;;;;;;;124.75;110.00;;;;;8.53;83.44;101332.50;146622;621;46036;-71
2024/01/01 00:33:58;;;;;;;;;155.25;137.75;;;;;8.59;82.88;101334.63;146623;742;47010;-69
2024/01/01 00:37:14;;;;;;;;;145.50;127.50;;;;;6.41;81.95;100941.75;146621;622;46017;-68
2024/01/01 00:40:28;;;;;;;;;;;;;;;;;;;;;
2024/01/01 00:43:32;;;;;;;;;119.50;103.00;;;;;8.75;82.55;101332.31;146620;661;46013;-69
2024/01/01 00:46:41;;;;;;;;;;;;;;;;;;;;;
2024/01/01 00:49:37;;;;;;;;;111.00;97.00;;;;;8.74;82.40;101338.28;146616;598;47014;-71
2024/01/01 00:52:31;;;;;;;;;105.33;93.67;;;;;8.76;82.95;101325.47;146622;573;46020;-70
2024/01/01 00:55:38;;;;;;;;;96.67;88.00;;;;;8.76;82.62;101328.94;146619;629;46016;-71
2024/01/01 00:58:42;;;;;;;;;120.50;106.75;;;;;8.78;83.03;101331.59;146624;662;46010;-69
2024/01/01 01:01:56;;;;;;;;;106.00;95.25;;;;;8.74;82.70;101327.94;146617;591;47014;-70
2024/01/01 01:04:51;;;;;;;;;88.67;79.00;;;;;8.75;82.81;101324.56;146621;578;46010;-69
2024/01/01 01:07:54;;;;;;;;;82.00;72.33;;;;;8.77;82.43;101316.91;146617;730;46016;-71
2024/01/01 01:10:48;;;;;;;;;81.00;71.33;;;;;8.78;82.52;101327.38;146619;576;46020;-70
2024/01/01 01:13:56;;;;;;;;;78.33;70.00;;;;;8.79;82.05;101326.56;146617;607;46016;-69
2024/01/01 01:17:14;;;;;;;;;79.67;72.67;;;;;4.94;81.17;100651.66;146611;601;46020;-69
2024/01/01 01:20:13;;;;;;;;;81.33;71.33;;;;;8.80;81.85;101324.87;146616;623;46017;-69
2024/01/01 01:23:23;;;;;;;;;75.00;65.33;;;;;8.76;84.15;101312.53;146697;564;46012;-71
2024/01/01 01:26:19;;;;;;;;;77.33;64.00;;;;;8.69;82.79;101298.28;146612;591;46016;-72
2024/01/01 01:29:12;;;;;;;;;76.67;63.33;;;;;8.78;82.66;101318.69;146619;599;46020;-69
2024/01/01 01:32:26;;;;;;;;;;;;;;;;;;;;;
2024/01/01 01:35:21;;;;;;;;;94.67;86.00;;;;;8.78;82.07;101337.72;146622;620;46010;-69
2024/01/01 01:38:23;;;;;;;;;74.00;60.67;;;;;8.81;81.99;101338.69;146619;576;46016;-69
2024/01/01 01:41:19;;;;;;;;;91.33;81.67;;;;;8.83;82.09;101337.12;146624;739;46020;-69
2024/01/01 01:44:26;;;;;;;;;106.00;93.00;;;;;8.51;81.60;101282.44;146622;610;46012;-71
2024/01/01 01:47:44;;;;;;;;;98.00;87.33;;;;;6.90;81.15;101009.63;146622;573;46031;-73
2024/01/01 01:50:38;;;;;;;;;114.25;100.00;;;;;8.74;81.98;101327.94;146621;685;46017;-70
2024/01/01 01:53:35;;;;;;;;;144.75;126.25;;;;;8.69;81.76;101326.75;146624;747;46020;-71
2024/01/01 01:56:35;;;;;;;;;95.67;85.00;;;;;8.66;82.41;101325.59;146620;660;46016;-70
2024/01/01 01:59:42;;;;;;;;;92.67;84.33;;;;;8.60;82.43;101320.94;146622;660;46020;-71
2024/01/01 02:02:44;;;;;;;;;85.67;77.67;;;;;8.58;82.22;101321.63;146619;935;46012;-70
2024/01/01 02:05:42;;;;;;;;;84.00;77.33;;;;;8.58;82.57;101309.59;146620;587;46020;-70
2024/01/01 02:08:37;;;;;;;;;89.33;79.00;;;;;8.59;82.70;101311.37;146618;723;46016;-71
2024/01/01 02:11:43;;;;;;;;;94.33;80.67;;;;;8.63;82.43;101310.81;146620;603;46018;-72
2024/01/01 02:14:44;;;;;;;;;85.00;72.33;;;;;8.66;82.84;101311.00;146616;583;46012;-72
2024/01/01 02:17:46;;;;;;;;;93.00;80.67;;;;;8.71;82.79;101301.87;146620;638;46010;-73
2024/01/01 02:20:41;;;;;;;;;81.00;71.33;;;;;8.75;82.93;101302.97;146618;578;46012;-71
2024/01/01 02:23:37;;;;;;;;;104.00;93.00;;;;;8.79;82.64;101299.81;146623;707;46020;-71
2024/01/01 02:26:29;;;;;;;;;185.25;156.50;;;;;8.78;82.58;101301.50;146622;597;46012;-71
2024/01/01 02:29:30;;;;;;;;;80.33;72.33;;;;;8.65;82.83;101277.28;146618;603;46021;-72
2024/01/01 02:32:31;;;;;;;;;87.33;74.00;;;;;8.76;82.50;101303.09;146617;574;46016;-72
2024/01/01 02:35:29;;;;;;;;;91.33;80.00;;;;;8.78;82.41;101298.00;146623;605;46021;-71
2024/01/01 02:38:33;;;;;;;;;78.67;69.67;;;;;8.82;82.17;101301.72;146621;575;46016;-71
2024/01/01 02:41:26;;;;;;;;;79.67;68.67;;;;;8.84;82.69;101294.94;146620;621;46020;-70
2024/01/01 02:44:31;;;;;;;;;74.50;59.50;;;;;8.85;82.37;101295.06;146619;656;46016;-71
2024/01/01 02:47:26;;;;;;;;;75.00;58.75;;;;;8.87;82.34;101297.72;146615;602;46010;-75
2024/01/01 02:50:37;;;;;;;;;;;;;;;;;;;;;
2024/01/01 02:53:29;;;;;;;;;77.33;68.67;;;;;8.90;82.06;101297.94;146616;569;46020;-73
2024/01/01 02:56:35;;;;;;;;;71.75;58.75;;;;;8.88;81.65;101289.16;146612;732;46016;-72
2024/01/01 02:59:33;;;;;;;;;71.25;58.25;;;;;8.88;81.90;101296.91;146617;661;46010;-71
2024/01/01 03:02:55;;;;;;;;;72.25;56.50;;;;;8.86;81.57;101283.00;146614;664;46016;-72
2024/01/01 03:05:53;;;;;;;;;73.50;59.00;;;;;8.84;81.93;101289.75;146617;668;46011;-70
2024/01/01 03:09:07;;;;;;;;;72.25;59.25;;;;;8.80;81.96;101288.66;146614;613;46014;-71
2024/01/01 03:12:05;;;;;;;;;73.50;60.50;;;;;8.77;82.23;101275.53;146616;625;46020;-71
2024/01/01 03:15:07;;;;;;;;;69.75;54.25;;;;;8.77;82.39;101278.13;146613;602;46922;-70
2024/01/01 03:18:06;;;;;;;;;67.75;52.25;;;;;8.76;82.42;101272.06;146615;578;45020;-69
2024/01/01 03:21:11;;;;;;;;;65.25;52.25;;;;;8.37;82.05;101208.19;146615;749;46017;-69
2024/01/01 03:24:03;;;;;;;;;66.25;52.50;;;;;8.75;82.19;101274.53;146614;617;47010;-69
2024/01/01 03:27:10;;;;;;;;;;;;;;;;;;;;;
2024/01/01 03:30:09;;;;;;;;;63.50;50.50;;;;;8.71;82.32;101263.06;146615;587;46020;-70
2024/01/01 03:33:16;;;;;;;;;63.25;47.75;;;;;8.67;82.28;101261.09;146615;701;46012;-73
2024/01/01 03:36:25;;;;;;;;;63.25;49.00;;;;;8.60;82.44;101253.72;146615;596;46020;-74
2024/01/01 03:39:20;;;;;;;;;59.50;47.00;;;;;8.52;83.03;101241.97;146614;598;46014;-73
2024/01/01 03:42:33;;;;;;;;;59.75;47.50;;;;;6.46;82.01;100891.47;146615;608;46021;-74
2024/01/01 03:45:28;;;;;;;;;58.00;46.50;;;;;8.46;83.12;101239.84;146612;611;47012;-74
2024/01/01 03:48:29;;;;;;;;;58.50;46.00;;;;;8.50;83.31;101249.63;146612;605;46020;-69
2024/01/01 03:51:33;;;;;;;;;59.50;47.75;;;;;8.56;83.46;101249.12;146614;592;46012;-69
2024/01/01 03:54:28;;;;;;;;;64.25;51.00;;;;;8.61;83.39;101249.44;146614;584;46023;-70
2024/01/01 03:57:25;;;;;;;;;71.50;59.50;;;;;8.63;83.06;101250.44;146611;558;46017;-70
2024/01/01 04:00:41;;;;;;;;;70.75;56.25;;;;;8.55;82.91;101234.41;146616;577;46020;-71
2024/01/01 04:03:47;;;;;;;;;77.25;62.75;;;;;8.71;82.50;101252.75;146613;615;46017;-66
2024/01/01 04:06:51;;;;;;;;;;;;;;;;;;;;;
2024/01/01 04:10:02;;;;;;;;;;;;;;;;;;;;;
2024/01/01 04:12:58;;;;;;;;;73.75;60.00;;;;;8.60;82.67;101257.97;146616;624;46030;-69
2024/01/01 04:16:04;;;;;;;;;70.50;54.75;;;;;8.52;82.40;101257.47;146614;581;46016;-70
2024/01/01 04:19:09;;;;;;;;;72.25;56.75;;;;;8.46;82.45;101260.53;146615;575;46020;-70
2024/01/01 04:22:19;;;;;;;;;73.00;59.75;;;;;8.50;82.65;101265.13;146610;655;46016;-71
2024/01/01 04:25:41;;;;;;;;;71.50;56.75;;;;;8.16;82.54;101201.56;146617;600;46010;-68
2024/01/01 04:28:37;;;;;;;;;70.50;56.25;;;;;8.56;83.15;101265.53;146611;588;46012;-69
2024/01/01 04:31:35;;;;;;;;;75.25;60.75;;;;;8.60;83.01;101274.41;146615;690;46020;-67
2024/01/01 04:34:31;;;;;;;;;75.75;59.50;;;;;8.62;82.64;101271.91;146612;610;46016;-72
2024/01/01 04:37:32;;;;;;;;;72.00;59.75;;;;;8.65;82.80;101282.47;146616;622;46020;-69
2024/01/01 04:40:39;;;;;;;;;71.50;57.00;;;;;8.68;82.99;101286.16;146613;662;46016;-68
2024/01/01 04:43:40;;;;;;;;;74.00;55.75;;;;;8.71;82.43;101285.47;146615;632;46010;-69
2024/01/01 04:46:38;;;;;;;;;69.75;54.00;;;;;8.69;82.61;101295.72;146613;648;46016;-71
2024/01/01 04:49:32;;;;;;;;;66.75;51.50;;;;;8.70;82.69;101292.31;146612;600;47012;-70
2024/01/01 04:52:44;;;;;;;;;62.75;47.75;;;;;8.71;82.50;101300.97;146614;575;46014;-69
2024/01/01 04:55:40;;;;;;;;;65.25;51.00;;;;;8.72;82.35;101300.16;146615;570;46011;-69
2024/01/01 04:58:36;;;;;;;;;60.75;48.50;;;;;8.73;82.55;101297.69;146611;613;46916;-70
2024/01/01 05:01:32;;;;;;;;;65.00;49.75;;;;;8.70;82.28;101300.06;146615;573;46020;-70
2024/01/01 05:04:40;;;;;;;;;66.50;51.00;;;;;8.69;82.00;101294.78;146613;609;46013;-69
2024/01/01 05:07:53;;;;;;;;;63.00;49.50;;;;;8.67;81.81;101298.97;146615;569;46020;-67
2024/01/01 05:10:49;;;;;;;;;65.75;50.75;;;;;8.66;82.44;101290.34;146612;575;46016;-70
2024/01/01 05:13:44;;;;;;;;;65.25;50.75;;;;;8.68;82.59;101295.59;146617;602;45024;-70
2024/01/01 05:16:51;;;;;;;;;62.75;48.75;;;;;8.70;82.20;101297.50;146613;654;46012;-70
2024/01/01 05:19:54;;;;;;;;;65.25;51.25;;;;;8.70;82.29;101297.50;146616;650;46020;-69
2024/01/01 05:23:13;;;;;;;;;62.25;51.00;;;;;6.01;81.33;100829.13;146611;665;46016;-70
2024/01/01 05:26:17;;;;;;;;;69.00;52.75;;;;;8.63;81.60;101295.28;146614;583;46012;-71
2024/01/01 05:29:14;;;;;;;;;64.50;51.00;;;;;8.59;81.98;101297.56;146607;569;47943;-68
2024/01/01 05:32:16;;;;;;;;;62.75;48.00;;;;;8.54;81.79;101299.84;146614;609;46020;-71
2024/01/01 05:35:20;;;;;;;;;66.00;51.25;;;;;8.50;81.92;101290.06;146608;573;46013;-72
2024/01/01 05:38:15;;;;;;;;;67.75;50.00;;;;;8.45;81.98;101299.22;146613;614;46010;-71
2024/01/01 05:41:11;;;;;;;;;67.50;49.50;;;;;8.42;82.27;101289.53;146612;576;46013;-68
2024/01/01 05:44:28;;;;;;;;;62.50;49.75;;;;;8.34;82.39;101286.38;146613;634;46020;-65
2024/01/01 05:47:41;;;;;;;;;61.00;46.50;;;;;8.29;82.13;101290.34;146610;623;47016;-67
2024/01/01 05:50:42;;;;;;;;;63.00;49.00;;;;;8.26;82.91;101289.25;146614;586;46021;-66
2024/01/01 05:54:01;;;;;;;;;66.50;51.00;;;;;8.28;82.68;101292.81;146609;569;46016;-67
2024/01/01 05:57:13;;;;;;;;;62.50;49.50;;;;;8.31;83.27;101295.63;146614;571;46010;-69
2024/01/01 06:00:29;;;;;;;;;61.50;48.50;;;;;8.30;83.12;101289.56;146610;588;46012;-71
2024/01/01 06:03:38;;;;;;;;;53.25;44.00;;;;;8.28;83.25;101288.53;146614;611;46012;-75
2024/01/01 06:06:45;;;;;;;;;58.75;46.00;;;;;8.30;83.54;101292.13;146613;605;46012;-74
2024/01/01 06:09:46;;;;;;;;;64.75;48.75;;;;;8.31;83.43;101285.28;146616;612;46010;-71
2024/01/01 06:12:42;;;;;;;;;58.50;46.75;;;;;6.30;83.48;100932.37;146612;590;46017;-73
2024/01/01 06:15:49;;;;;;;;;61.25;47.75;;;;;8.33;83.78;101292.34;146614;726;46012;-72
2024/01/01 06:19:02;;;;;;;;;66.25;51.00;;;;;8.29;84.14;101284.31;146612;574;46017;-72
2024/01/01 06:22:15;;;;;;;;;68.00;51.25;;;;;8.40;83.56;101301.44;146611;679;46020;-72
2024/01/01 06:25:18;;;;;;;;;67.75;51.50;;;;;8.42;83.91;101302.47;146612;579;46012;-73
2024/01/01 06:28:25;;;;;;;;;63.75;49.25;;;;;8.46;83.96;101303.56;146617;586;46010;-72
2024/01/01 06:31:44;;;;;;;;;62.00;48.25;;;;;8.54;83.82;101299.84;146613;570;46029;-69
2024/01/01 06:34:50;;;;;;;;;;;;;;;;;;;;;
2024/01/01 06:38:06;;;;;;;;;61.50;48.25;;;;;8.59;84.39;101313.06;146609;589;47012;-69
2024/01/01 06:41:23;;;;;;;;;59.50;46.25;;;;;8.60;83.70;101301.91;146607;584;46021;-69
2024/01/01 06:44:28;;;;;;;;;59.50;46.50;;;;;8.61;84.17;101302.03;146611;602;46014;-69
2024/01/01 06:47:24;;;;;;;;;60.50;47.00;;;;;8.65;84.32;101305.72;146613;587;46010;-69
2024/01/01 06:50:41;;;;;;;;;61.00;46.75;;;;;8.69;84.09;101303.47;146609;580;47012;-69
2024/01/01 06:53:36;;;;;;;;;57.75;45.00;;;;;8.75;84.13;101300.38;146612;685;46010;-70
2024/01/01 06:56:54;;;;;;;;;56.75;45.25;;;;;8.86;83.81;101307.19;146614;595;46017;-68
2024/01/01 06:59:47;;;;;;;;;58.00;45.50;;;;;8.95;84.21;101304.31;146614;627;46024;-69
2024/01/01 07:02:42;;;;;;;;;60.25;46.50;;;;;9.03;84.07;101303.12;146610;593;47016;-70
2024/01/01 07:05:44;;;;;;;;;67.50;52.25;;;;;9.06;83.37;101294.66;146614;628;46020;-70
2024/01/01 07:08:54;;;;;;;;;67.00;51.50;;;;;9.15;83.13;101309.09;146608;569;46016;-72
2024/01/01 07:11:53;;;;;;;;;71.00;56.00;;;;;9.23;83.38;101317.41;146610;570;46010;-71
2024/01/01 07:15:03;;;;;;;;;67.00;52.00;;;;;7.01;82.34;100923.66;146601;577;48917;-69
2024/01/01 07:18:00;;;;;;;;;66.25;50.00;;;;;9.31;82.95;101315.28;146613;592;46020;-69
2024/01/01 07:21:06;;;;;;;;;67.50;51.75;;;;;9.35;82.68;101325.97;146610;589;46918;-70
2024/01/01 07:24:14;;;;;;;;;62.50;50.75;;;;;7.07;82.11;100924.06;146609;586;48010;-69
2024/01/01 07:27:11;;;;;;;;;68.00;51.00;;;;;9.41;82.61;101325.47;146611;577;46016;-68
2024/01/01 07:30:28;;;;;;;;;66.75;52.50;;;;;9.43;82.43;101334.22;146614;655;46020;-69
2024/01/01 07:34:02;;;;;;;;;62.75;48.75;;;;;9.46;81.80;101324.97;146611;588;46016;-68
2024/01/01 07:37:05;;;;;;;;;68.50;52.50;;;;;7.10;81.59;100902.72;146614;649;46010;-69
2024/01/01 07:40:25;;;;;;;;;67.50;51.75;;;;;9.52;82.00;101311.53;146611;636;46017;-70
2024/01/01 07:43:20;;;;;;;;;72.00;55.67;;;;;9.71;84.25;101314.50;146609;648;45022;-70
2024/01/01 07:46:21;;;;;;;;;72.50;59.50;;;;;10.09;86.72;101312.53;146608;679;47916;-70
2024/01/01 07:49:27;;;;;;;;;75.33;64.67;;;;;8.55;87.77;100937.19;146611;615;47010;-71
2024/01/01 07:52:36;;;;;;;;;92.00;80.33;;;;;11.16;82.99;101305.19;146613;934;46016;-68
2024/01/01 07:55:37;;;;;;;;;102.33;87.33;;;;;11.32;77.70;101307.84;146620;571;46011;-69
2024/01/01 07:58:39;;;;;;;;;92.67;83.00;;;;;11.29;75.20;101300.78;146618;929;46016;-68
2024/01/01 08:01:40;;;;;;;;;85.00;72.67;;;;;11.21;74.51;101282.97;146619;579;47010;-68
2024/01/01 08:04:46;;;;;;;;;102.33;85.00;;;;;9.00;74.58;100922.69;146618;569;46014;-67
2024/01/01 08:07:57;;;;;;;;;89.67;78.67;;;;;9.18;76.65;100930.69;146622;834;46010;-68
2024/01/01 08:10:59;;;;;;;;;85.00;77.00;;;;;11.43;76.09;101287.69;146620;586;46023;-68
2024/01/01 08:13:54;;;;;;;;;100.00;88.33;;;;;11.52;74.97;101277.81;146614;634;46020;-69
2024/01/01 08:16:59;;;;;;;;;110.33;95.33;;;;;11.48;74.39;101263.75;146618;594;47012;-68
2024/01/01 08:20:04;;;;;;;;;110.50;96.50;;;;;11.54;73.62;101281.41;146621;596;46020;-70
2024/01/01 08:23:07;;;;;;;;;117.25;106.75;;;;;11.53;73.35;101283.09;146619;632;46016;-67
2024/01/01 08:26:21;;;;;;;;;108.00;96.00;;;;;8.06;73.20;100686.09;146621;616;46020;-71
2024/01/01 08:29:19;;;;;;;;;103.00;91.00;;;;;11.39;73.14;101285.72;146619;565;46014;-71
2024/01/01 08:32:20;;;;;;;;;104.33;94.67;;;;;11.31;73.35;101275.81;146622;633;46010;-70
2024/01/01 08:35:15;;;;;;;;;90.67;81.33;;;;;11.24;74.04;101275.34;146616;563;46016;-70
2024/01/01 08:38:27;;;;;;;;;;;;;;;;;;;;;
2024/01/01 08:41:24;;;;;;;;;100.00;92.33;;;;;11.29;75.83;101269.62;146616;604;46016;-70
2024/01/01 08:44:24;;;;;;;;;95.00;84.67;;;;;11.50;76.33;101282.94;146614;630;46020;-72
2024/01/01 08:47:19;;;;;;;;;78.33;70.33;;;;;11.66;76.41;101273.41;146616;629;46017;-70
2024/01/01 08:50:16;;;;;;;;;76.67;65.67;;;;;11.78;76.35;101261.09;146621;636;45020;-71
2024/01/01 08:53:22;;;;;;;;;75.00;63.33;;;;;12.04;75.53;101265.13;146616;631;46015;-72
2024/01/01 08:56:21;;;;;;;;;71.67;58.67;;;;;12.27;74.73;101265.44;146615;678;46010;-72
2024/01/01 08:59:26;;;;;;;;;76.33;64.33;;;;;12.48;73.56;101258.78;146616;631;46027;-72
2024/01/01 09:02:32;;;;;;;;;77.00;67.00;;;;;12.77;75.03;101251.56;146616;600;46021;-72
2024/01/01 09:05:50;;;;;;;;;80.67;72.00;;;;;13.20;74.46;101248.50;146614;584;46016;-71
2024/01/01 09:08:48;;;;;;;;;76.67;66.00;;;;;13.66;72.49;101245.53;146618;575;46010;-70
2024/01/01 09:11:47;;;;;;;;;83.00;74.67;;;;;14.01;70.16;101237.63;146611;634;46916;-70
2024/01/01 09:14:50;;;;;;;;;70.25;57.50;;;;;14.33;69.64;101235.59;146610;567;47020;-71
2024/01/01 09:17:43;;;;;;;;;75.25;62.00;;;;;14.68;68.99;101223.19;146613;645;46034;-70
2024/01/01 09:20:41;;;;;;;;;64.75;51.75;;;;;15.04;67.20;101218.59;146611;586;46020;-70
2024/01/01 09:23:37;;;;;;;;;67.50;54.25;;;;;15.30;64.28;101213.56;146609;609;46017;-70
2024/01/01 09:26:30;;;;;;;;;63.75;49.25;;;;;15.48;63.35;101220.41;146609;614;46020;-70
2024/01/01 09:29:32;;;;;;;;;64.75;51.00;;;;;15.70;65.11;101216.94;146610;592;46016;-71
2024/01/01 09:32:30;;;;;;;;;64.75;49.50;;;;;15.89;62.09;101204.56;146605;591;47011;-71
2024/01/01 09:35:33;;;;;;;;;58.25;46.25;;;;;16.02;61.55;101203.28;146607;563;46921;-70
2024/01/01 09:38:32;;;;;;;;;63.75;51.00;;;;;16.17;60.33;101206.47;146610;609;47021;-71
2024/01/01 09:41:34;;;;;;;;;62.50;48.25;;;;;16.25;61.71;101191.00;146607;569;46917;-69
2024/01/01 09:44:33;;;;;;;;;67.25;51.00;;;;;16.39;60.78;101195.03;146611;692;46010;-69
2024/01/01 09:47:41;;;;;;;;;66.75;53.75;;;;;16.45;62.20;101168.16;146609;565;46017;-70
2024/01/01 09:51:00;;;;;;;;;61.75;47.25;;;;;14.83;61.94;100878.31;146603;583;46913;-71
2024/01/01 09:53:56;;;;;;;;;70.50;60.25;;;;;16.67;59.34;101183.78;146605;605;47013;-71
2024/01/01 09:57:11;;;;;;;;;60.50;46.75;;;;;13.61;61.73;100631.31;146613;603;46020;-70
2024/01/01 10:00:28;;;;;;;;;61.00;48.50;;;;;16.85;61.36;101173.03;146606;618;48018;-71
2024/01/01 10:03:24;;;;;;;;;66.00;53.00;;;;;16.90;58.10;101160.97;146613;591;46010;-71
2024/01/01 10:06:21;;;;;;;;;69.50;52.00;;;;;16.94;56.58;101162.84;146604;658;48012;-71
2024/01/01 10:09:15;;;;;;;;;58.75;46.25;;;;;16.96;58.07;101165.53;146613;590;46021;-71
2024/01/01 10:12:12;;;;;;;;;61.25;48.00;;;;;17.05;58.74;101153.62;146609;590;46012;-71
2024/01/01 10:15:28;;;;;;;;;58.75;45.75;;;;;17.20;58.86;101140.12;146611;607;46012;-71
2024/01/01 10:18:43;;;;;;;;;57.00;45.75;;;;;17.38;57.85;101134.53;146606;581;46012;-71
2024/01/01 10:22:04;;;;;;;;;;;;;;;;;;;;;
2024/01/01 10:25:34;;;;;;;;;64.00;49.75;;;;;17.80;60.03;101115.69;146611;606;46013;-71
2024/01/01 10:28:31;;;;;;;;;57.75;46.00;;;;;17.92;54.09;101102.91;146613;574;47020;-72
2024/01/01 10:31:45;;;;;;;;;;;;;;;;;;;;;
2024/01/01 10:34:45;;;;;;;;;49.25;40.00;;;;;17.97;55.76;101093.44;146616;577;46020;-72
2024/01/01 10:37:56;;;;;;;;;49.75;40.50;;;;;18.00;55.27;101092.59;146610;565;46017;-72
2024/01/01 10:40:51;;;;;;;;;52.25;41.25;;;;;18.04;55.32;101086.62;146610;582;46020;-66
2024/01/01 10:43:49;;;;;;;;;56.75;44.50;;;;;18.15;54.67;101077.25;146611;584;46016;-70
2024/01/01 10:46:55;;;;;;;;;58.75;46.25;;;;;18.27;55.74;101078.44;146607;602;46011;-70
2024/01/01 10:50:44;;;;;;;;;;;;;;;;;;;;;
2024/01/01 10:54:58;;;;;;;;;;;;;;;;;;;;;
2024/01/01 10:58:40;;;;;;;;;45.00;36.50;;;;;18.59;59.15;101085.38;146610;608;47016;-73
2024/01/01 11:01:43;;;;;;;;;48.00;37.75;;;;;18.69;52.22;101079.50;146613;612;46011;-73
2024/01/01 11:04:58;;;;;;;;;;;;;;;;;;;;;
2024/01/01 11:08:21;;;;;;;;;46.25;39.00;;;;;18.81;58.16;101068.41;146613;583;46018;-73
2024/01/01 11:11:34;;;;;;;;;50.50;39.75;;;;;17.24;54.60;100784.69;146611;587;46016;-74
2024/01/01 11:14:57;;;;;;;;;37.00;32.50;;;;;18.85;53.75;101064.13;146611;596;46010;-71
2024/01/01 11:18:27;;;;;;;;;52.25;42.00;;;;;15.65;55.51;100514.41;146601;563;47922;-73
2024/01/01 11:21:42;;;;;;;;;42.25;34.00;;;;;18.81;58.10;101060.53;146607;591;46023;-71
2024/01/01 11:25:15;;;;;;;;;31.75;29.00;;;;;18.85;58.45;101057.13;146612;593;46016;-72
2024/01/01 11:28:39;;;;;;;;;54.00;41.75;;;;;18.92;56.46;101053.78;146612;699;46020;-73
2024/01/01 11:32:03;;;;;;;;;37.50;29.50;;;;;17.27;55.19;100751.56;146608;616;47013;-73
2024/01/01 11:35:33;;;;;;;;;45.00;36.75;;;;;17.40;58.26;100764.97;146613;607;46020;-71
2024/01/01 11:38:29;;;;;;;;;53.00;41.75;;;;;19.01;52.31;101049.59;146609;580;46017;-72
2024/01/01 11:41:57;;;;;;;;;50.75;39.75;;;;;18.85;53.71;101036.13;146612;632;46010;-72
2024/01/01 11:44:54;;;;;;;;;48.75;39.25;;;;;18.55;52.53;101032.75;146610;579;46017;-72
2024/01/01 11:48:14;;;;;;;;;46.50;37.75;;;;;18.18;56.49;101019.59;146615;581;46010;-72
2024/01/01 11:51:09;;;;;;;;;54.50;43.75;;;;;18.03;55.18;101036.69;146612;716;45033;-71
2024/01/01 11:54:30;;;;;;;;;53.50;42.75;;;;;17.95;56.59;101028.66;146606;577;46021;-72
2024/01/01 11:57:47;;;;;;;;;;;;;;;;;;;;;
2024/01/01 12:00:58;;;;;;;;;;;;;;;;;;;;;
2024/01/01 12:04:01;;;;;;;;;48.00;39.00;;;;;18.34;52.06;101020.88;146609;717;47016;-72
2024/01/01 12:07:03;;;;;;;;;50.00;39.50;;;;;18.41;52.79;101017.56;146613;648;46020;-75
2024/01/01 12:10:18;;;;;;;;;46.00;39.00;;;;;18.36;52.35;101011.31;146609;575;46913;-74
2024/01/01 12:13:24;;;;;;;;;47.50;39.00;;;;;18.33;54.09;101005.09;146614;600;46020;-70
2024/01/01 12:16:32;;;;;;;;;50.00;40.50;;;;;18.39;54.48;101006.13;146610;689;46914;-72
2024/01/01 12:19:31;;;;;;;;;57.00;45.00;;;;;18.36;51.70;100990.31;146612;594;46010;-72
2024/01/01 12:22:53;;;;;;;;;;;;;;;;;;;;;
2024/01/01 12:25:50;;;;;;;;;51.75;41.25;;;;;17.88;53.11;100988.25;146608;622;46012;-74
2024/01/01 12:29:29;;;;;;;;;50.00;38.00;;;;;17.68;55.79;100994.66;146608;636;47012;-73
2024/01/01 12:32:40;;;;;;;;;;;;;;;;;;;;;
2024/01/01 12:35:39;;;;;;;;;45.75;37.00;;;;;17.76;58.34;101007.13;146611;591;46016;-72
2024/01/01 12:39:00;;;;;;;;;39.00;33.50;;;;;18.24;55.52;101004.00;146612;606;47010;-73
2024/01/01 12:41:52;;;;;;;;;42.50;33.50;;;;;17.26;51.67;100743.69;146609;564;47014;-72
2024/01/01 12:44:57;;;;;;;;;;;;;;;;;;;;;
2024/01/01 12:48:02;;;;;;;;;44.25;36.25;;;;;19.34;49.75;101009.97;146611;571;46033;-72
2024/01/01 12:50:57;;;;;;;;;40.50;32.75;;;;;19.62;49.60;101011.41;146608;624;47916;-72
2024/01/01 12:54:04;;;;;;;;;38.25;33.00;;;;;19.76;52.10;101009.94;146611;582;46012;-73
2024/01/01 12:57:09;;;;;;;;;;;;;;;;;;;;;
2024/01/01 13:00:26;;;;;;;;;39.75;32.75;;;;;19.90;50.33;101010.19;146611;610;46017;-72
2024/01/01 13:03:23;;;;;;;;;38.25;29.50;;;;;19.78;48.20;100997.72;146610;635;47010;-73
2024/01/01 13:06:32;;;;;;;;;42.75;35.25;;;;;19.52;50.20;101002.44;146610;632;46016;-73
2024/01/01 13:09:30;;;;;;;;;33.25;28.25;;;;;19.07;51.15;101008.56;146614;593;46030;-73
2024/01/01 13:12:23;;;;;;;;;32.25;28.50;;;;;18.67;51.87;101010.28;146608;650;46918;-73
2024/01/01 13:15:29;;;;;;;;;36.50;31.50;;;;;18.29;54.02;101017.25;146614;572;46010;-71
2024/01/01 13:18:36;;;;;;;;;43.50;35.50;;;;;17.97;55.52;101025.22;146614;592;46012;-71
2024/01/01 13:21:31;;;;;;;;;43.00;34.75;;;;;17.90;56.64;101017.13;146614;613;46012;-72
2024/01/01 13:24:34;;;;;;;;;45.50;36.75;;;;;18.19;56.01;101026.66;146611;681;46016;-72
2024/01/01 13:27:29;;;;;;;;;22.75;21.75;;;;;18.45;55.96;101024.66;146607;580;47010;-72
2024/01/01 13:30:30;;;;;;;;;25.75;21.25;;;;;18.59;54.61;101016.19;146612;705;46016;-73
2024/01/01 13:33:35;;;;;;;;;40.25;31.75;;;;;18.67;55.87;101019.91;146608;629;46913;-72
2024/01/01 13:36:36;;;;;;;;;28.25;24.50;;;;;18.85;55.41;101022.97;146609;664;46013;-72
2024/01/01 13:39:31;;;;;;;;;22.75;22.75;;;;;19.05;53.08;101018.16;146614;566;46024;-71
2024/01/01 13:42:43;;;;;;;;;26.75;23.25;;;;;16.94;57.61;100623.28;146609;600;46016;-73
2024/01/01 13:45:40;;;;;;;;;38.75;31.50;;;;;19.30;51.89;101010.78;146615;611;46020;-72
2024/01/01 13:48:47;;;;;;;;;32.75;28.00;;;;;19.30;52.34;101014.28;146609;577;46016;-73
2024/01/01 13:51:50;;;;;;;;;28.00;23.75;;;;;19.34;54.11;101005.59;146611;615;47010;-71
2024/01/01 13:55:16;;;;;;;;;36.25;30.00;;;;;19.42;55.51;101000.50;146610;608;46016;-73
2024/01/01 13:58:27;;;;;;;;;26.75;24.25;;;;;19.54;52.77;100990.22;146606;575;46020;-73
2024/01/01 14:02:03;;;;;;;;;30.25;22.75;;;;;17.91;56.81;100665.66;146606;729;48017;-75
2024/01/01 14:05:12;;;;;;;;;23.50;22.50;;;;;20.06;54.85;100999.09;146613;577;46020;-72
2024/01/01 14:08:16;;;;;;;;;37.25;31.75;;;;;20.21;51.13;100984.38;146614;575;45029;-71
2024/01/01 14:11:17;;;;;;;;;56.00;43.00;;;;;20.36;50.93;100989.91;146612;651;46029;-70
2024/01/01 14:14:21;;;;;;;;;43.75;35.75;;;;;20.47;49.88;100990.06;146610;627;47013;-72
2024/01/01 14:17:20;;;;;;;;;38.00;32.75;;;;;20.47;50.48;101005.88;146612;570;46010;-73
2024/01/01 14:20:35;;;;;;;;;43.75;36.50;;;;;18.68;53.68;100709.13;146610;565;46016;-73
2024/01/01 14:23:39;;;;;;;;;50.25;41.25;;;;;20.26;50.75;100994.13;146612;636;46021;-72
2024/01/01 14:26:54;;;;;;;;;30.50;27.75;;;;;20.10;51.45;101000.03;146609;593;46012;-73
2024/01/01 14:29:49;;;;;;;;;25.50;22.00;;;;;19.94;51.86;101000.63;146612;575;46011;-72
2024/01/01 14:33:04;;;;;;;;;23.50;23.25;;;;;18.26;53.40;100744.22;146610;622;46012;-71
2024/01/01 14:35:58;;;;;;;;;21.00;18.75;;;;;19.19;51.20;100989.53;146613;589;46021;-72
2024/01/01 14:38:59;;;;;;;;;20.25;17.75;;;;;18.50;53.73;100993.22;146609;645;47014;-71
2024/01/01 14:41:57;;;;;;;;;26.25;23.00;;;;;17.88;55.23;100995.22;146613;619;46020;-72